createdAt,value
2023-05-04T00:02:06.972Z,102010.31
2023-05-04T00:07:11.008Z,102019.38
2023-05-04T00:12:15.137Z,102023.16
2023-05-04T00:17:19.172Z,102023.25
2023-05-04T00:22:23.277Z,102012.13
2023-05-04T00:27:27.185Z,102020.56
2023-05-04T00:32:31.734Z,102010.69
2023-05-04T00:37:35.901Z,101946.41
2023-05-04T00:42:39.803Z,102016.78
2023-05-04T00:47:44.413Z,102018.38
2023-05-04T00:52:51.749Z,102012.72
2023-05-04T00:57:57.170Z,102013.34
2023-05-04T01:03:01.262Z,102010.28
2023-05-04T01:08:16.469Z,102000.09
2023-05-04T01:13:23.125Z,102006.94
2023-05-04T01:18:27.539Z,102004.38
2023-05-04T01:23:31.536Z,101988.72
2023-05-04T01:28:55.417Z,102003.22
2023-05-04T01:33:59.544Z,101994.34
2023-05-04T01:39:05.049Z,101998.72
2023-05-04T01:44:10.208Z,102000.91
2023-05-04T01:49:14.398Z,101990.25
2023-05-04T01:54:18.405Z,101974.78
2023-05-04T01:59:22.469Z,101980.13
2023-05-04T02:04:26.583Z,101977.31
2023-05-04T02:09:30.682Z,101984.16
2023-05-04T02:14:34.868Z,101972.91
2023-05-04T02:19:38.878Z,101974.53
2023-05-04T02:24:45.158Z,101966.88
2023-05-04T02:29:49.380Z,101962.66
2023-05-04T02:34:54.362Z,101961.47
2023-05-04T02:39:58.331Z,101953.59
2023-05-04T02:45:02.610Z,101962.94
2023-05-04T02:50:08.195Z,101917.84
2023-05-04T02:55:12.450Z,101958.28
2023-05-04T03:00:16.977Z,101960.97
2023-05-04T03:05:21.177Z,101926.44
2023-05-04T03:10:25.662Z,101969.31
2023-05-04T03:15:29.605Z,101954.59
2023-05-04T03:20:33.852Z,101938.13
2023-05-04T03:25:38.421Z,101896.22
2023-05-04T03:30:43.045Z,101897.81
2023-05-04T03:35:48.441Z,101940.22
2023-05-04T03:40:52.676Z,101935.13
2023-05-04T03:45:56.842Z,101939.59
2023-05-04T03:51:01.074Z,101931.44
2023-05-04T03:56:05.475Z,101928.50
2023-05-04T04:01:09.602Z,101931.72
2023-05-04T04:06:15.255Z,101925.22
2023-05-04T04:11:19.551Z,101917.34
2023-05-04T04:16:23.765Z,101913.63
2023-05-04T04:21:27.736Z,101854.22
2023-05-04T04:26:31.840Z,101889.78
2023-05-04T04:31:36.056Z,101898.63
2023-05-04T04:36:41.170Z,101896.16
2023-05-04T04:41:45.269Z,101890.16
2023-05-04T04:46:50.155Z,101893.75
2023-05-04T04:51:54.257Z,101891.84
2023-05-04T04:56:58.123Z,101889.78
2023-05-04T05:02:03.016Z,101874.28
2023-05-04T05:07:09.554Z,101856.25
2023-05-04T05:12:13.893Z,101863.94
2023-05-04T05:17:18.873Z,101846.66
2023-05-04T05:22:23.068Z,101864.63
2023-05-04T05:27:27.624Z,101850.84
2023-05-04T05:32:31.598Z,101852.59
2023-05-04T05:37:35.890Z,101835.97
2023-05-04T05:42:39.785Z,101824.31
2023-05-04T05:47:44.008Z,101825.94
2023-05-04T05:52:48.092Z,101815.16
2023-05-04T05:57:52.358Z,101805.84
2023-05-04T06:02:56.646Z,101794.19
2023-05-04T06:08:01.149Z,101803.03
2023-05-04T06:13:05.531Z,101738.25
2023-05-04T06:18:09.544Z,101753.81
2023-05-04T06:23:15.590Z,101780.88
2023-05-04T06:28:19.468Z,101798.56
2023-05-04T06:33:23.898Z,101785.72
2023-05-04T06:38:27.815Z,101787.00
2023-05-04T06:43:34.257Z,101736.09
2023-05-04T06:48:38.273Z,101768.13
2023-05-04T06:53:42.453Z,101768.59
2023-05-04T06:58:46.818Z,101767.56
2023-05-04T07:03:51.110Z,101760.59
2023-05-04T07:08:55.186Z,101766.41
2023-05-04T07:14:01.332Z,101769.69
2023-05-04T07:19:05.457Z,101771.81
2023-05-04T07:24:09.534Z,101752.25
2023-05-04T07:29:13.538Z,101744.53
2023-05-04T07:34:17.639Z,101763.69
2023-05-04T07:39:21.738Z,101753.81
2023-05-04T07:44:25.873Z,101746.38
2023-05-04T07:49:29.869Z,101733.84
2023-05-04T07:54:33.934Z,101734.00
2023-05-04T07:59:37.938Z,101730.47
2023-05-04T08:04:42.011Z,101725.84
2023-05-04T08:09:46.122Z,101723.56
2023-05-04T08:14:50.384Z,101714.09
2023-05-04T08:19:54.969Z,101708.09
2023-05-04T08:24:58.837Z,101704.16
2023-05-04T08:30:03.040Z,101698.19
2023-05-04T08:35:08.722Z,101692.22
2023-05-04T08:40:13.560Z,101687.53
2023-05-04T08:45:19.108Z,101682.47
2023-05-04T08:50:23.316Z,101684.44
2023-05-04T08:55:27.914Z,101675.66
2023-05-04T09:00:33.782Z,101672.72
2023-05-04T09:05:39.267Z,101668.38
2023-05-04T09:10:43.213Z,101680.78
2023-05-04T09:16:00.063Z,101673.81
2023-05-04T09:21:04.197Z,101679.81
2023-05-04T09:26:08.137Z,101676.72
2023-05-04T09:31:12.546Z,101677.63
2023-05-04T09:36:22.848Z,101672.44
2023-05-04T09:41:34.413Z,101675.78
2023-05-04T09:46:38.664Z,101663.72
2023-05-04T09:51:43.751Z,101666.44
2023-05-04T09:56:53.268Z,101660.47
2023-05-04T10:02:02.463Z,101664.88
2023-05-04T10:07:15.201Z,101658.78
2023-05-04T10:12:19.219Z,101665.03
2023-05-04T10:17:42.147Z,101654.38
2023-05-04T10:22:49.127Z,101652.13
2023-05-04T10:28:12.511Z,101634.00
2023-05-04T10:33:17.308Z,101638.44
2023-05-04T10:38:32.393Z,101586.75
2023-05-04T10:43:36.644Z,101636.53
2023-05-04T10:48:40.723Z,101624.44
2023-05-04T10:53:44.980Z,101601.72
2023-05-04T10:58:49.506Z,101590.00
2023-05-04T11:03:54.824Z,101599.22
2023-05-04T11:09:06.582Z,101590.59
2023-05-04T11:14:11.944Z,101592.81
2023-05-04T11:19:19.027Z,101579.13
2023-05-04T11:24:22.901Z,101578.16
2023-05-04T11:29:27.253Z,101580.91
2023-05-04T11:34:31.171Z,101570.47
2023-05-04T11:39:36.313Z,101565.78
2023-05-04T11:44:42.373Z,101570.22
2023-05-04T11:49:48.509Z,101574.91
2023-05-04T11:54:58.650Z,101564.28
2023-05-04T12:00:02.173Z,101564.91
2023-05-04T12:05:14.919Z,101526.19
2023-05-04T12:10:35.509Z,101568.63
2023-05-04T12:15:39.687Z,101570.81
2023-05-04T12:20:44.236Z,101564.91
2023-05-04T12:26:07.547Z,101548.84
2023-05-04T12:31:11.463Z,101557.28
2023-05-04T12:36:15.753Z,101549.09
2023-05-04T12:41:19.609Z,101554.16
2023-05-04T12:46:23.766Z,101549.97
2023-05-04T12:51:27.716Z,101542.06
2023-05-04T12:56:32.913Z,101537.75
2023-05-04T13:01:37.350Z,101492.47
2023-05-04T13:06:41.314Z,101541.47
2023-05-04T13:11:45.474Z,101541.97
2023-05-04T13:16:51.044Z,101545.19
2023-05-04T13:21:55.374Z,101522.28
2023-05-04T13:26:59.194Z,101525.03
2023-05-04T13:32:03.390Z,101522.53
2023-05-04T13:37:08.258Z,101509.06
2023-05-04T13:42:13.789Z,101503.84
2023-05-04T13:47:18.866Z,101500.34
2023-05-04T13:52:22.764Z,101496.44
2023-05-04T13:57:30.722Z,101485.56
2023-05-04T14:02:35.733Z,101501.97
2023-05-04T14:07:39.888Z,101498.75
2023-05-04T14:12:44.180Z,101426.88
2023-05-04T14:17:48.287Z,101505.34
2023-05-04T14:22:52.177Z,101502.00
2023-05-04T14:27:56.330Z,101488.00
2023-05-04T14:33:00.328Z,101515.06
2023-05-04T14:38:04.713Z,101511.91
2023-05-04T14:43:08.518Z,101503.81
2023-05-04T14:48:12.844Z,101505.53
2023-05-04T14:53:17.037Z,101440.06
2023-05-04T14:58:20.909Z,101517.25
2023-05-04T15:03:26.887Z,101509.78
2023-05-04T15:08:30.949Z,101485.31
2023-05-04T15:13:35.004Z,101520.31
2023-05-04T15:18:38.905Z,101515.03
2023-05-04T15:23:54.192Z,101529.16
2023-05-04T15:29:42.104Z,101478.06
2023-05-04T15:41:31.854Z,101528.59
2023-05-04T15:47:05.472Z,101528.56
2023-05-04T15:52:47.863Z,101531.03
2023-05-04T15:58:13.626Z,101536.34
2023-05-04T16:04:00.592Z,101527.59
2023-05-04T16:15:22.692Z,101527.09
2023-05-04T16:21:21.786Z,101517.06
2023-05-04T16:27:09.409Z,101523.41
2023-05-04T16:32:40.405Z,101528.56
2023-05-04T16:38:30.574Z,101497.78
2023-05-04T16:43:53.783Z,101504.09
2023-05-04T16:49:45.239Z,101493.22
2023-05-04T16:55:11.540Z,101499.63
2023-05-04T17:00:37.573Z,101490.34
2023-05-04T17:12:08.222Z,101480.94
2023-05-04T17:17:57.317Z,101472.84
2023-05-04T17:23:29.084Z,101486.91
2023-05-04T17:28:51.548Z,101477.38
2023-05-04T17:34:08.824Z,101467.19
2023-05-04T17:45:16.791Z,101469.38
2023-05-04T17:50:36.987Z,101453.88
2023-05-04T17:55:55.970Z,101440.81
2023-05-04T18:01:17.056Z,101441.34
2023-05-04T18:06:35.741Z,101436.25
2023-05-04T18:11:59.985Z,101426.25
2023-05-04T18:22:43.104Z,101414.06
2023-05-04T18:28:07.332Z,101413.47
2023-05-04T18:33:20.317Z,101418.59
2023-05-04T18:38:45.430Z,101418.19
2023-05-04T18:43:57.918Z,101410.84
2023-05-04T18:49:04.899Z,101352.91
2023-05-04T18:54:09.346Z,101401.59
2023-05-04T18:59:13.210Z,101408.91
2023-05-04T19:04:17.250Z,101400.91
2023-05-04T19:09:21.474Z,101396.69
2023-05-04T19:14:27.269Z,101392.38
2023-05-04T19:19:32.376Z,101377.28
2023-05-04T19:24:38.425Z,101376.44
2023-05-04T19:29:42.422Z,101365.25
2023-05-04T19:34:47.233Z,101369.00
2023-05-04T19:39:51.761Z,101355.94
2023-05-04T19:44:56.077Z,101357.47
2023-05-04T19:50:00.003Z,101356.53
2023-05-04T19:55:04.286Z,101331.88
2023-05-04T20:00:10.582Z,101345.81
2023-05-04T20:05:17.853Z,101349.91
2023-05-04T20:10:22.292Z,101342.25
2023-05-04T20:15:26.779Z,101328.72
2023-05-04T20:20:30.951Z,101335.16
2023-05-04T20:25:35.141Z,101335.06
2023-05-04T20:30:39.422Z,101277.69
2023-05-04T20:35:44.878Z,101328.81
2023-05-04T20:40:50.356Z,101321.44
2023-05-04T20:45:55.762Z,101322.00
2023-05-04T20:51:12.847Z,101333.81
2023-05-04T20:56:18.519Z,101325.31
2023-05-04T21:01:22.474Z,101331.28
2023-05-04T21:06:26.605Z,101262.00
2023-05-04T21:11:30.672Z,101317.28
2023-05-04T21:16:34.860Z,101334.56
2023-05-04T21:21:41.914Z,101329.78
2023-05-04T21:26:46.637Z,101313.56
2023-05-04T21:31:50.851Z,101313.56
2023-05-04T21:36:55.070Z,101310.47
2023-05-04T21:41:59.366Z,101327.56
2023-05-04T21:47:04.599Z,101328.22
2023-05-04T21:52:08.852Z,101306.63
2023-05-04T21:57:12.807Z,101286.00
2023-05-04T22:02:16.912Z,101296.25
2023-05-04T22:07:20.848Z,101239.00
2023-05-04T22:12:25.080Z,101313.06
2023-05-04T22:17:29.213Z,101302.44
2023-05-04T22:22:33.316Z,101291.19
2023-05-04T22:27:37.565Z,101241.94
2023-05-04T22:32:41.821Z,101232.13
2023-05-04T22:37:47.772Z,101308.09
2023-05-04T22:42:51.607Z,101302.97
2023-05-04T22:47:55.618Z,101300.72
2023-05-04T22:52:59.931Z,101319.50
2023-05-04T22:58:03.813Z,101299.31
2023-05-04T23:03:08.459Z,101317.63
2023-05-04T23:08:12.361Z,101315.75
2023-05-04T23:13:16.662Z,101318.19
2023-05-04T23:18:20.491Z,101324.34
2023-05-04T23:23:24.658Z,101341.94
2023-05-04T23:28:28.536Z,101362.47
2023-05-04T23:33:32.375Z,101338.34
2023-05-04T23:38:36.417Z,101350.69
2023-05-04T23:43:40.231Z,101347.72
2023-05-04T23:48:44.219Z,101355.84
2023-05-04T23:53:48.395Z,101367.09
2023-05-04T23:58:52.194Z,101368.03
